createdAt,value
2023-02-23T00:01:42.293Z,100748.69
2023-02-23T00:04:09.074Z,100746.13
2023-02-23T00:06:37.287Z,100751.69
2023-02-23T00:09:23.272Z,100745.78
2023-02-23T00:11:55.182Z,100748.41
2023-02-23T00:14:27.275Z,100752.88
2023-02-23T00:16:57.586Z,100741.50
2023-02-23T00:19:24.807Z,100754.31
2023-02-23T00:21:52.263Z,100749.22
2023-02-23T00:24:22.007Z,100748.06
2023-02-23T00:26:51.304Z,100751.53
2023-02-23T00:29:21.153Z,100749.41
2023-02-23T00:31:49.256Z,100738.53
2023-02-23T00:34:20.996Z,100746.78
2023-02-23T00:36:51.170Z,100742.97
2023-02-23T00:39:26.440Z,100740.34
2023-02-23T00:41:54.951Z,100731.47
2023-02-23T00:44:23.495Z,100740.53
2023-02-23T00:46:51.682Z,100733.06
2023-02-23T00:49:19.972Z,100735.59
2023-02-23T00:51:46.962Z,100739.22
2023-02-23T00:54:15.301Z,100735.16
2023-02-23T00:56:41.813Z,100734.59
2023-02-23T00:59:08.776Z,100742.97
2023-02-23T01:01:37.370Z,100731.63
2023-02-23T01:04:04.794Z,100728.91
2023-02-23T01:06:31.173Z,100729.81
2023-02-23T01:08:57.565Z,100732.78
2023-02-23T01:11:30.917Z,100726.53
2023-02-23T01:13:58.971Z,100732.69
2023-02-23T01:16:30.109Z,100729.34
2023-02-23T01:18:59.451Z,100735.41
2023-02-23T01:21:29.409Z,100724.97
2023-02-23T01:23:56.893Z,100730.97
2023-02-23T01:26:29.147Z,100728.44
2023-02-23T01:28:58.364Z,100728.19
2023-02-23T01:31:25.725Z,100729.91
2023-02-23T01:33:57.056Z,100724.88
2023-02-23T01:36:25.488Z,100735.56
2023-02-23T01:38:57.020Z,100729.06
2023-02-23T01:41:25.013Z,100728.91
2023-02-23T01:44:06.249Z,100721.34
2023-02-23T01:46:34.816Z,100719.94
2023-02-23T01:49:03.830Z,100719.63
2023-02-23T01:51:34.337Z,100716.00
2023-02-23T01:54:08.015Z,100718.22
2023-02-23T01:56:37.938Z,100723.38
2023-02-23T01:59:08.152Z,100721.75
2023-02-23T02:01:34.710Z,100720.69
2023-02-23T02:04:07.203Z,100716.66
2023-02-23T02:06:36.562Z,100717.47
2023-02-23T02:09:08.139Z,100713.09
2023-02-23T02:11:36.215Z,100713.38
2023-02-23T02:14:12.994Z,100715.00
2023-02-23T02:16:42.497Z,100715.19
2023-02-23T02:19:44.001Z,100715.19
2023-02-23T02:22:31.215Z,100716.31
2023-02-23T02:25:16.583Z,100714.09
2023-02-23T02:28:14.080Z,100707.47
2023-02-23T02:31:22.009Z,100711.81
2023-02-23T02:34:07.275Z,100714.03
2023-02-23T02:37:03.312Z,100709.75
2023-02-23T02:40:16.268Z,100714.19
2023-02-23T02:43:21.155Z,100710.25
2023-02-23T02:46:11.708Z,100714.78
2023-02-23T02:48:50.117Z,100711.22
2023-02-23T02:51:30.414Z,100705.94
2023-02-23T02:54:15.111Z,100708.50
2023-02-23T02:56:44.051Z,100703.50
2023-02-23T02:59:33.231Z,100707.03
2023-02-23T03:02:18.313Z,100701.59
2023-02-23T03:05:03.608Z,100711.66
2023-02-23T03:07:58.865Z,100708.59
2023-02-23T03:11:01.117Z,100697.09
2023-02-23T03:14:20.048Z,100697.09
2023-02-23T03:17:18.507Z,100698.84
2023-02-23T03:20:17.396Z,100699.91
2023-02-23T03:23:30.880Z,100694.31
2023-02-23T03:26:31.943Z,100696.88
2023-02-23T03:29:31.305Z,100699.41
2023-02-23T03:32:22.148Z,100698.19
2023-02-23T03:35:16.799Z,100697.94
2023-02-23T03:38:15.282Z,100698.75
2023-02-23T03:41:04.200Z,100699.00
2023-02-23T03:43:55.868Z,100695.78
2023-02-23T03:46:44.243Z,100694.13
2023-02-23T03:49:32.025Z,100701.69
2023-02-23T03:52:25.866Z,100707.13
2023-02-23T03:55:19.620Z,100708.22
2023-02-23T03:58:08.477Z,100708.69
2023-02-23T04:00:59.870Z,100706.66
2023-02-23T04:03:47.470Z,100710.94
2023-02-23T04:06:35.824Z,100711.25
2023-02-23T04:09:24.625Z,100717.75
2023-02-23T04:12:24.631Z,100716.22
2023-02-23T04:14:57.900Z,100714.53
2023-02-23T04:17:28.323Z,100716.78
2023-02-23T04:19:56.717Z,100718.91
2023-02-23T04:22:24.056Z,100719.50
2023-02-23T04:24:50.805Z,100722.34
2023-02-23T04:27:18.188Z,100715.88
2023-02-23T04:29:45.121Z,100720.22
2023-02-23T04:32:15.477Z,100721.69
2023-02-23T04:34:42.622Z,100728.84
2023-02-23T04:37:09.046Z,100723.94
2023-02-23T04:39:35.531Z,100731.00
2023-02-23T04:42:02.361Z,100730.09
2023-02-23T04:44:28.979Z,100725.41
2023-02-23T04:46:56.677Z,100736.34
2023-02-23T04:49:23.678Z,100727.63
2023-02-23T04:51:50.244Z,100730.34
2023-02-23T04:54:16.840Z,100728.69
2023-02-23T04:56:43.175Z,100731.88
2023-02-23T04:59:09.574Z,100728.59
2023-02-23T05:01:37.153Z,100728.03
2023-02-23T05:04:03.607Z,100736.75
2023-02-23T05:06:30.904Z,100735.09
2023-02-23T05:08:57.611Z,100740.53
2023-02-23T05:11:24.935Z,100731.00
2023-02-23T05:13:52.122Z,100737.50
2023-02-23T05:16:18.516Z,100737.81
2023-02-23T05:18:44.902Z,100744.31
2023-02-23T05:21:11.547Z,100739.97
2023-02-23T05:23:38.415Z,100746.94
2023-02-23T05:26:11.040Z,100745.88
2023-02-23T05:28:39.462Z,100749.09
2023-02-23T05:31:06.604Z,100746.13
2023-02-23T05:33:34.700Z,100744.59
2023-02-23T05:36:04.859Z,100746.44
2023-02-23T05:38:31.245Z,100752.16
2023-02-23T05:40:57.594Z,100750.72
2023-02-23T05:43:24.190Z,100754.00
2023-02-23T05:45:50.711Z,100755.00
2023-02-23T05:48:17.166Z,100762.09
2023-02-23T05:50:43.550Z,100756.66
2023-02-23T05:53:10.334Z,100751.22
2023-02-23T05:55:37.523Z,100762.47
2023-02-23T05:58:04.078Z,100756.19
2023-02-23T06:00:30.561Z,100762.94
2023-02-23T06:02:56.982Z,100763.16
2023-02-23T06:05:23.409Z,100765.16
2023-02-23T06:07:49.864Z,100766.22
2023-02-23T06:10:16.479Z,100762.69
2023-02-23T06:12:42.864Z,100770.59
2023-02-23T06:15:09.908Z,100768.47
2023-02-23T06:17:36.668Z,100771.78
2023-02-23T06:20:04.849Z,100779.09
2023-02-23T06:22:31.347Z,100776.72
2023-02-23T06:24:57.727Z,100777.22
2023-02-23T06:27:24.093Z,100778.47
2023-02-23T06:29:50.550Z,100786.16
2023-02-23T06:32:17.032Z,100782.63
2023-02-23T06:34:44.772Z,100777.22
2023-02-23T06:37:12.078Z,100784.84
2023-02-23T06:39:38.549Z,100784.63
2023-02-23T06:42:04.954Z,100790.84
2023-02-23T06:44:31.460Z,100791.66
2023-02-23T06:46:57.804Z,100792.53
2023-02-23T06:49:24.284Z,100800.09
2023-02-23T06:51:50.766Z,100800.09
2023-02-23T06:54:17.631Z,100803.38
2023-02-23T06:56:44.066Z,100805.50
2023-02-23T06:59:10.679Z,100813.38
2023-02-23T07:01:37.138Z,100808.81
2023-02-23T07:04:03.762Z,100815.28
2023-02-23T07:06:31.490Z,100818.81
2023-02-23T07:08:58.693Z,100815.88
2023-02-23T07:11:25.063Z,100822.97
2023-02-23T07:13:51.575Z,100822.44
2023-02-23T07:16:17.980Z,100832.38
2023-02-23T07:18:44.390Z,100829.44
2023-02-23T07:21:10.871Z,100833.06
2023-02-23T07:23:37.303Z,100834.97
2023-02-23T07:26:03.724Z,100842.38
2023-02-23T07:28:30.276Z,100836.38
2023-02-23T07:30:57.829Z,100844.66
2023-02-23T07:33:25.219Z,100850.75
2023-02-23T07:35:51.743Z,100856.19
2023-02-23T07:38:18.845Z,100847.22
2023-02-23T07:40:45.243Z,100851.94
2023-02-23T07:43:11.745Z,100850.63
2023-02-23T07:45:38.671Z,100858.53
2023-02-23T07:48:05.220Z,100852.53
2023-02-23T07:50:31.587Z,100855.25
2023-02-23T07:52:58.009Z,100861.13
2023-02-23T07:55:24.386Z,100855.94
2023-02-23T07:57:50.790Z,100864.59
2023-02-23T08:00:17.621Z,100860.47
2023-02-23T08:02:44.025Z,100868.94
2023-02-23T08:05:11.088Z,100870.34
2023-02-23T08:07:37.514Z,100874.13
2023-02-23T08:10:04.231Z,100877.44
2023-02-23T08:12:33.649Z,100871.41
2023-02-23T08:15:00.177Z,100876.84
2023-02-23T08:17:27.446Z,100875.06
2023-02-23T08:19:53.855Z,100882.88
2023-02-23T08:22:21.445Z,100885.91
2023-02-23T08:24:47.765Z,100881.19
2023-02-23T08:27:14.185Z,100882.88
2023-02-23T08:29:40.608Z,100882.22
2023-02-23T08:32:07.068Z,100886.50
2023-02-23T08:34:40.953Z,100886.44
2023-02-23T08:37:07.810Z,100887.25
2023-02-23T08:39:34.475Z,100887.94
2023-02-23T08:42:00.811Z,100891.47
2023-02-23T08:44:27.301Z,100889.00
2023-02-23T08:46:55.275Z,100895.81
2023-02-23T08:49:22.600Z,100899.63
2023-02-23T08:51:49.026Z,100891.13
2023-02-23T08:54:16.196Z,100904.78
2023-02-23T08:56:43.452Z,100899.56
2023-02-23T08:59:11.330Z,100909.72
2023-02-23T09:01:37.695Z,100905.94
2023-02-23T09:04:05.458Z,100905.59
2023-02-23T09:06:32.875Z,100909.63
2023-02-23T09:08:59.269Z,100904.94
2023-02-23T09:11:26.358Z,100917.75
2023-02-23T09:13:52.751Z,100914.97
2023-02-23T09:16:19.158Z,100924.16
2023-02-23T09:18:45.759Z,100918.03
2023-02-23T09:21:18.827Z,100916.41
2023-02-23T09:23:49.732Z,100916.75
2023-02-23T09:26:18.744Z,100924.63
2023-02-23T09:28:46.138Z,100921.69
2023-02-23T09:31:16.245Z,100921.69
2023-02-23T09:33:42.669Z,100923.00
2023-02-23T09:36:17.956Z,100927.97
2023-02-23T09:38:46.562Z,100926.78
2023-02-23T09:41:45.753Z,100933.50
2023-02-23T09:44:26.200Z,100944.03
2023-02-23T09:47:04.416Z,100947.31
2023-02-23T09:49:36.088Z,100941.88
2023-02-23T09:52:03.883Z,100939.28
2023-02-23T09:54:35.397Z,100944.84
2023-02-23T09:57:06.239Z,100948.84
2023-02-23T09:59:34.989Z,100948.38
2023-02-23T10:02:19.536Z,100950.97
2023-02-23T10:04:48.449Z,100945.06
2023-02-23T10:07:34.282Z,100946.00
2023-02-23T10:10:21.698Z,100955.78
2023-02-23T10:13:00.766Z,100958.72
2023-02-23T10:15:36.344Z,100960.03
2023-02-23T10:18:46.539Z,100960.53
2023-02-23T10:21:21.482Z,100963.84
2023-02-23T10:23:54.107Z,100971.13
2023-02-23T10:26:39.798Z,100963.84
2023-02-23T10:29:20.817Z,100968.78
2023-02-23T10:31:52.293Z,100965.47
2023-02-23T10:34:18.959Z,100968.41
2023-02-23T10:37:06.327Z,100970.44
2023-02-23T10:39:33.953Z,100972.56
2023-02-23T10:42:05.636Z,100973.63
2023-02-23T10:44:32.489Z,100977.16
2023-02-23T10:47:02.861Z,100979.03
2023-02-23T10:49:40.237Z,100980.13
2023-02-23T10:52:13.674Z,100982.56
2023-02-23T10:54:47.525Z,100980.13
2023-02-23T10:57:26.901Z,100988.00
2023-02-23T11:00:18.186Z,100986.72
2023-02-23T11:02:45.379Z,100988.00
2023-02-23T11:05:35.117Z,100981.41
2023-02-23T11:08:25.163Z,100980.94
2023-02-23T11:11:06.126Z,100982.25
2023-02-23T11:13:41.658Z,100982.84
2023-02-23T11:16:11.697Z,100986.03
2023-02-23T11:18:40.931Z,100981.06
2023-02-23T11:21:13.653Z,100978.13
2023-02-23T11:23:41.472Z,100979.53
2023-02-23T11:26:23.104Z,100981.75
2023-02-23T11:28:53.907Z,100984.25
2023-02-23T11:31:23.644Z,100983.19
2023-02-23T11:33:54.521Z,100978.69
2023-02-23T11:36:23.947Z,100981.66
2023-02-23T11:39:16.505Z,100973.03
2023-02-23T11:41:43.334Z,100975.88
2023-02-23T11:44:21.655Z,100975.28
2023-02-23T11:46:50.748Z,100977.72
2023-02-23T11:49:33.165Z,100975.88
2023-02-23T11:51:59.783Z,100970.91
2023-02-23T11:54:30.280Z,100966.06
2023-02-23T11:56:58.067Z,100964.41
2023-02-23T11:59:31.392Z,100966.63
2023-02-23T12:02:20.634Z,100967.13
2023-02-23T12:04:47.706Z,100963.34
2023-02-23T12:07:46.339Z,100952.13
2023-02-23T12:10:19.372Z,100964.88
2023-02-23T12:12:57.700Z,100965.13
2023-02-23T12:15:28.157Z,100971.06
2023-02-23T12:18:03.906Z,100962.78
2023-02-23T12:20:39.529Z,100969.38
2023-02-23T12:23:12.411Z,100968.38
2023-02-23T12:25:44.661Z,100962.94
2023-02-23T12:28:22.680Z,100962.34
2023-02-23T12:30:49.058Z,100965.66
2023-02-23T12:33:21.380Z,100962.94
2023-02-23T12:35:56.706Z,100962.59
2023-02-23T12:38:49.353Z,100959.63
2023-02-23T12:41:23.846Z,100964.56
2023-02-23T12:43:59.777Z,100961.16
2023-02-23T12:46:30.461Z,100962.34
2023-02-23T12:49:19.521Z,100967.19
2023-02-23T12:51:52.934Z,100973.66
2023-02-23T12:54:19.324Z,100973.06
2023-02-23T12:57:09.520Z,100969.06
2023-02-23T12:59:39.006Z,100970.72
2023-02-23T13:02:12.666Z,100977.78
2023-02-23T13:05:02.441Z,100976.97
2023-02-23T13:07:44.802Z,100973.88
2023-02-23T13:10:39.927Z,100965.75
2023-02-23T13:13:11.497Z,100974.00
2023-02-23T13:15:57.318Z,100967.41
2023-02-23T13:18:39.318Z,100969.53
2023-02-23T13:21:16.603Z,100967.28
2023-02-23T13:24:11.641Z,100969.91
2023-02-23T13:26:53.660Z,100967.19
2023-02-23T13:29:43.344Z,100972.34
2023-02-23T13:32:19.142Z,100970.13
2023-02-23T13:34:52.538Z,100976.88
2023-02-23T13:37:23.814Z,100974.03
2023-02-23T13:40:02.234Z,100978.63
2023-02-23T13:43:07.627Z,100977.91
2023-02-23T13:46:05.167Z,100981.13
2023-02-23T13:49:04.247Z,100975.94
2023-02-23T13:51:38.032Z,100976.28
2023-02-23T13:54:23.002Z,100985.34
2023-02-23T13:56:56.122Z,100984.53
2023-02-23T13:59:25.861Z,100987.25
2023-02-23T14:01:54.321Z,100986.56
2023-02-23T14:04:27.415Z,100982.53
2023-02-23T14:06:58.400Z,100990.09
2023-02-23T14:09:36.583Z,100989.72
2023-02-23T14:12:16.728Z,100989.25
2023-02-23T14:14:45.447Z,100990.31
2023-02-23T14:17:14.869Z,100990.31
2023-02-23T14:20:24.313Z,100998.31
2023-02-23T14:23:25.011Z,100996.31
2023-02-23T14:26:08.768Z,100986.06
2023-02-23T14:28:41.537Z,100987.22
2023-02-23T14:31:11.087Z,100985.94
2023-02-23T14:33:51.376Z,100986.06
2023-02-23T14:36:23.814Z,100986.28
2023-02-23T14:39:01.243Z,100986.28
2023-02-23T14:41:33.688Z,100985.81
2023-02-23T14:44:06.099Z,100987.94
2023-02-23T14:46:34.912Z,100989.38
2023-02-23T14:49:20.200Z,100985.47
2023-02-23T14:51:51.727Z,100994.31
2023-02-23T14:54:23.937Z,100987.22
2023-02-23T14:56:53.431Z,100991.25
2023-02-23T14:59:23.341Z,100989.47
2023-02-23T15:01:51.511Z,100994.78
2023-02-23T15:04:22.527Z,100991.34
2023-02-23T15:06:52.711Z,100996.91
2023-02-23T15:09:32.024Z,100998.31
2023-02-23T15:12:00.279Z,100997.72
2023-02-23T15:14:28.533Z,101007.63
2023-02-23T15:16:56.700Z,100999.75
2023-02-23T15:19:25.719Z,100995.13
2023-02-23T15:21:54.949Z,100996.78
2023-02-23T15:24:27.363Z,100999.47
2023-02-23T15:26:55.653Z,100998.44
2023-02-23T15:29:32.419Z,101002.47
2023-02-23T15:32:21.590Z,101009.53
2023-02-23T15:34:48.441Z,101004.81
2023-02-23T15:37:30.687Z,101010.84
2023-02-23T15:40:02.407Z,101006.56
2023-02-23T15:42:45.853Z,101004.22
2023-02-23T15:45:24.549Z,101010.00
2023-02-23T15:47:54.148Z,101011.19
2023-02-23T15:50:36.569Z,101002.47
2023-02-23T15:53:13.353Z,101006.47
2023-02-23T15:55:43.256Z,101008.25
2023-02-23T15:58:21.828Z,101012.47
2023-02-23T16:01:08.319Z,101018.38
2023-02-23T16:03:37.575Z,101016.63
2023-02-23T16:06:21.660Z,101018.75
2023-02-23T16:08:59.467Z,101018.38
2023-02-23T16:11:26.684Z,101020.03
2023-02-23T16:13:54.130Z,101019.44
2023-02-23T16:16:25.376Z,101017.78
2023-02-23T16:19:01.694Z,101012.38
2023-02-23T16:21:34.682Z,101012.00
2023-02-23T16:24:08.870Z,101016.47
2023-02-23T16:26:44.191Z,101010.38
2023-02-23T16:29:17.867Z,101013.41
2023-02-23T16:31:45.873Z,101019.78
2023-02-23T16:34:24.440Z,101016.63
2023-02-23T16:36:56.687Z,101020.38
2023-02-23T16:39:29.062Z,101020.59
2023-02-23T16:41:59.307Z,101027.44
2023-02-23T16:44:34.371Z,101016.25
2023-02-23T16:47:08.184Z,101027.69
2023-02-23T16:49:34.507Z,101028.38
2023-02-23T16:52:01.471Z,101026.34
2023-02-23T16:54:28.072Z,101026.72
2023-02-23T16:56:55.852Z,101022.97
2023-02-23T16:59:23.349Z,101022.22
2023-02-23T17:01:50.677Z,101021.53
2023-02-23T17:04:18.701Z,101022.34
2023-02-23T17:06:52.795Z,101023.28
2023-02-23T17:09:19.219Z,101026.78
2023-02-23T17:11:47.039Z,101026.78
2023-02-23T17:14:24.704Z,101025.84
2023-02-23T17:16:51.784Z,101023.50
2023-02-23T17:19:19.355Z,101019.50
2023-02-23T17:21:46.520Z,101017.75
2023-02-23T17:24:12.878Z,101018.56
2023-02-23T17:26:39.729Z,101024.81
2023-02-23T17:29:06.116Z,101028.81
2023-02-23T17:31:32.812Z,101024.81
2023-02-23T17:33:59.604Z,101029.06
2023-02-23T17:36:27.513Z,101026.34
2023-02-23T17:38:58.787Z,101025.31
2023-02-23T17:41:25.892Z,101039.56
2023-02-23T17:43:52.373Z,101034.25
2023-02-23T17:46:19.169Z,101032.84
2023-02-23T17:48:47.145Z,101029.31
2023-02-23T17:51:16.954Z,101020.94
2023-02-23T17:53:43.629Z,101024.38
2023-02-23T17:56:10.683Z,101026.97
2023-02-23T17:58:38.224Z,101032.28
2023-02-23T18:01:06.081Z,101035.66
2023-02-23T18:03:34.718Z,101042.16
2023-02-23T18:06:05.196Z,101044.88
2023-02-23T18:08:32.406Z,101036.25
2023-02-23T18:10:58.953Z,101036.97
2023-02-23T18:13:26.568Z,101040.88
2023-02-23T18:15:55.438Z,101040.50
2023-02-23T18:18:24.051Z,101050.09
2023-02-23T18:20:56.169Z,101049.59
2023-02-23T18:23:23.607Z,101046.88
2023-02-23T18:25:50.466Z,101048.91
2023-02-23T18:28:18.279Z,101047.72
2023-02-23T18:30:45.253Z,101057.38
2023-02-23T18:33:13.177Z,101055.13
2023-02-23T18:35:44.843Z,101059.03
2023-02-23T18:38:12.725Z,101059.63
2023-02-23T18:40:39.866Z,101056.31
2023-02-23T18:43:06.680Z,101052.44
2023-02-23T18:45:34.055Z,101048.91
2023-02-23T18:48:00.779Z,101056.91
2023-02-23T18:50:27.232Z,101046.06
2023-02-23T18:52:55.672Z,101053.84
2023-02-23T18:55:23.044Z,101050.31
2023-02-23T18:57:52.583Z,101045.47
2023-02-23T19:00:19.851Z,101043.81
2023-02-23T19:02:46.622Z,101049.00
2023-02-23T19:05:14.105Z,101042.53
2023-02-23T19:07:41.057Z,101041.56
2023-02-23T19:10:09.208Z,101052.28
2023-02-23T19:12:36.099Z,101050.28
2023-02-23T19:15:03.280Z,101044.84
2023-02-23T19:17:30.236Z,101039.06
2023-02-23T19:19:56.728Z,101045.09
2023-02-23T19:22:23.442Z,101038.84
2023-02-23T19:24:50.054Z,101042.13
2023-02-23T19:27:17.281Z,101041.03
2023-02-23T19:29:45.468Z,101041.03
2023-02-23T19:32:16.306Z,101041.66
2023-02-23T19:34:43.506Z,101048.72
2023-02-23T19:37:09.903Z,101044.13
2023-02-23T19:39:36.662Z,101048.53
2023-02-23T19:42:03.155Z,101045.56
2023-02-23T19:44:29.821Z,101050.38
2023-02-23T19:46:57.152Z,101046.25
2023-02-23T19:49:24.461Z,101050.25
2023-02-23T19:51:52.837Z,101046.16
2023-02-23T19:54:20.098Z,101047.00
2023-02-23T19:56:48.102Z,101051.59
2023-02-23T19:59:14.475Z,101055.81
2023-02-23T20:01:40.813Z,101054.50
2023-02-23T20:04:09.331Z,101053.19
2023-02-23T20:06:40.937Z,101060.84
2023-02-23T20:09:08.972Z,101055.13
2023-02-23T20:11:35.304Z,101059.50
2023-02-23T20:14:04.177Z,101063.28
2023-02-23T20:16:31.106Z,101072.06
2023-02-23T20:18:58.233Z,101070.31
2023-02-23T20:21:26.738Z,101062.97
2023-02-23T20:23:55.267Z,101065.69
2023-02-23T20:26:27.441Z,101059.81
2023-02-23T20:28:54.991Z,101059.81
2023-02-23T20:31:35.099Z,101060.78
2023-02-23T20:34:06.520Z,101058.66
2023-02-23T20:36:32.968Z,101057.25
2023-02-23T20:38:59.468Z,101059.34
2023-02-23T20:41:28.112Z,101061.31
2023-02-23T20:43:55.917Z,101055.44
2023-02-23T20:46:22.684Z,101057.91
2023-02-23T20:48:49.258Z,101054.53
2023-02-23T20:51:18.891Z,101063.72
2023-02-23T20:53:47.914Z,101060.84
2023-02-23T20:56:16.842Z,101055.81
2023-02-23T20:58:44.502Z,101066.63
2023-02-23T21:01:15.647Z,101061.22
2023-02-23T21:03:42.929Z,101064.53
2023-02-23T21:06:09.762Z,101064.31
2023-02-23T21:08:39.714Z,101059.13
2023-02-23T21:11:07.823Z,101061.00
2023-02-23T21:13:35.178Z,101050.00
2023-02-23T21:16:03.050Z,101050.59
2023-02-23T21:18:31.103Z,101059.97
2023-02-23T21:21:06.400Z,101061.31
2023-02-23T21:23:32.833Z,101054.63
2023-02-23T21:26:07.502Z,101055.22
2023-02-23T21:28:34.051Z,101051.69
2023-02-23T21:31:00.451Z,101058.63
2023-02-23T21:33:26.903Z,101045.50
2023-02-23T21:35:55.187Z,101050.88
2023-02-23T21:38:23.641Z,101048.97
2023-02-23T21:40:50.016Z,101052.72
2023-02-23T21:43:16.510Z,101054.84
2023-02-23T21:45:46.625Z,101048.38
2023-02-23T21:48:13.668Z,101041.28
2023-02-23T21:50:40.320Z,101048.09
2023-02-23T21:53:07.231Z,101043.13
2023-02-23T21:55:33.594Z,101043.13
2023-02-23T21:58:00.166Z,101037.34
2023-02-23T22:00:27.963Z,101040.53
2023-02-23T22:02:54.479Z,101041.88
2023-02-23T22:05:21.128Z,101050.81
2023-02-23T22:07:52.666Z,101049.69
2023-02-23T22:10:21.535Z,101040.31
2023-02-23T22:12:50.029Z,101043.66
2023-02-23T22:15:16.516Z,101034.72
2023-02-23T22:17:44.192Z,101034.50
2023-02-23T22:20:11.983Z,101036.25
2023-02-23T22:22:38.474Z,101036.69
2023-02-23T22:25:07.006Z,101035.66
2023-02-23T22:27:33.403Z,101025.41
2023-02-23T22:30:01.312Z,101036.25
2023-02-23T22:32:32.452Z,101023.16
2023-02-23T22:35:00.152Z,101025.41
2023-02-23T22:37:31.883Z,101021.03
2023-02-23T22:39:59.995Z,101017.50
2023-02-23T22:42:29.878Z,101019.53
2023-02-23T22:44:57.097Z,101014.56
2023-02-23T22:47:24.176Z,101012.25
2023-02-23T22:49:50.681Z,101010.56
2023-02-23T22:52:17.045Z,101006.56
2023-02-23T22:54:46.064Z,101006.69
2023-02-23T22:57:13.353Z,101004.34
2023-02-23T22:59:39.814Z,101001.63
2023-02-23T23:02:06.219Z,100999.75
2023-02-23T23:04:34.360Z,100993.28
2023-02-23T23:07:01.142Z,101000.94
2023-02-23T23:09:28.193Z,100990.81
2023-02-23T23:11:56.646Z,100990.81
2023-02-23T23:14:23.496Z,100997.03
2023-02-23T23:16:53.133Z,100998.09
2023-02-23T23:19:24.572Z,100997.84
2023-02-23T23:21:54.930Z,100994.56
2023-02-23T23:24:23.658Z,100987.03
2023-02-23T23:26:55.436Z,100986.22
2023-02-23T23:29:23.116Z,100983.72
2023-02-23T23:31:50.016Z,100976.78
2023-02-23T23:34:16.824Z,100981.16
2023-02-23T23:36:49.321Z,100980.34
2023-02-23T23:39:21.771Z,100979.75
2023-02-23T23:41:49.913Z,100968.06
2023-02-23T23:44:22.636Z,100966.22
2023-02-23T23:46:53.529Z,100965.34
2023-02-23T23:49:22.004Z,100962.91
2023-02-23T23:51:50.867Z,100962.91
2023-02-23T23:54:21.383Z,100964.53
2023-02-23T23:56:49.439Z,100963.72
2023-02-23T23:59:20.465Z,100965.72
